Terminal Aerodrome Forecast
Issued by NWS Bismarck, ND

Home | Current Version | Previous Version | Text Only | Print | Product List | Glossary On
Versions: 1 2 3 4 5 6 7 8 9 10 11 12 13 14
711
FTUS43 KBIS 200529
TAFISN
TAF
KISN 200529Z 2006/2106 33009KT P6SM FEW140 FEW250
     FM201800 28004KT P6SM FEW130 FEW200
     FM202300 16006KT P6SM FEW150 SCT200
     FM210200 12006KT P6SM FEW140 SCT200=

USA.gov is the U.S. government's official web portal to all federal, state and local government web resources and services.